createdAt,value
2022-12-31T00:00:32.626Z,3.83
2022-12-31T00:03:00.152Z,3.84
2022-12-31T00:05:27.334Z,3.77
2022-12-31T00:07:54.349Z,3.87
2022-12-31T00:10:21.900Z,3.85
2022-12-31T00:12:49.023Z,3.88
2022-12-31T00:15:16.175Z,3.81
2022-12-31T00:17:43.498Z,3.81
2022-12-31T00:20:11.049Z,3.72
2022-12-31T00:22:38.113Z,3.81
2022-12-31T00:25:06.113Z,3.83
2022-12-31T00:27:33.216Z,3.74
2022-12-31T00:30:04.932Z,3.63
2022-12-31T00:32:32.585Z,3.72
2022-12-31T00:34:59.565Z,3.69
2022-12-31T00:37:26.570Z,3.72
2022-12-31T00:39:53.850Z,3.70
2022-12-31T00:42:20.881Z,3.71
2022-12-31T00:44:47.879Z,3.76
2022-12-31T00:47:15.379Z,3.74
2022-12-31T00:49:42.575Z,3.70
2022-12-31T00:52:09.775Z,3.76
2022-12-31T00:54:37.207Z,3.83
2022-12-31T00:57:04.232Z,3.78
2022-12-31T00:59:31.271Z,3.73
2022-12-31T01:01:58.655Z,3.78
2022-12-31T01:04:25.820Z,3.77
2022-12-31T01:06:58.907Z,3.83
2022-12-31T01:09:27.311Z,3.70
2022-12-31T01:11:54.373Z,3.72
2022-12-31T01:14:21.620Z,3.74
2022-12-31T01:16:52.192Z,3.72
2022-12-31T01:19:25.595Z,3.72
2022-12-31T01:21:53.278Z,3.69
2022-12-31T01:24:20.895Z,3.69
2022-12-31T01:26:50.901Z,3.80
2022-12-31T01:29:18.572Z,3.75
2022-12-31T01:31:46.880Z,3.79
2022-12-31T01:34:13.977Z,3.88
2022-12-31T01:36:41.440Z,3.89
2022-12-31T01:39:09.680Z,3.93
2022-12-31T01:41:40.009Z,3.84
2022-12-31T01:44:13.385Z,3.79
2022-12-31T01:46:58.291Z,3.84
2022-12-31T01:49:34.761Z,3.87
2022-12-31T01:52:07.745Z,3.93
2022-12-31T01:54:44.476Z,4.00
2022-12-31T01:57:12.543Z,3.98
2022-12-31T01:59:40.818Z,3.95
2022-12-31T02:02:08.023Z,3.93
2022-12-31T02:04:35.658Z,3.92
2022-12-31T02:07:06.931Z,3.85
2022-12-31T02:09:36.629Z,3.93
2022-12-31T02:12:04.959Z,3.91
2022-12-31T02:14:35.188Z,3.85
2022-12-31T02:17:12.811Z,3.86
2022-12-31T02:20:05.499Z,3.76
2022-12-31T02:22:58.587Z,3.78
2022-12-31T02:26:10.978Z,3.84
2022-12-31T02:29:05.594Z,3.86
2022-12-31T02:31:34.800Z,3.71
2022-12-31T02:34:33.648Z,3.83
2022-12-31T02:37:04.916Z,3.81
2022-12-31T02:39:33.305Z,3.89
2022-12-31T02:42:01.923Z,3.77
2022-12-31T02:44:32.598Z,3.78
2022-12-31T02:47:09.035Z,3.83
2022-12-31T02:50:00.919Z,3.79
2022-12-31T02:52:49.766Z,3.81
2022-12-31T02:55:23.705Z,3.75
2022-12-31T02:57:56.741Z,3.72
2022-12-31T03:00:42.832Z,3.76
2022-12-31T03:03:10.938Z,3.80
2022-12-31T03:05:42.948Z,3.81
2022-12-31T03:08:10.065Z,3.78
2022-12-31T03:10:37.204Z,3.85
2022-12-31T03:13:04.489Z,3.83
2022-12-31T03:15:33.309Z,3.93
2022-12-31T03:18:46.761Z,3.91
2022-12-31T03:21:32.805Z,3.87
2022-12-31T03:24:18.743Z,3.78
2022-12-31T03:26:46.051Z,3.79
2022-12-31T03:29:13.076Z,3.92
2022-12-31T03:31:40.159Z,3.87
2022-12-31T03:34:07.495Z,3.93
2022-12-31T03:36:34.763Z,3.94
2022-12-31T03:39:01.770Z,3.97
2022-12-31T03:41:29.088Z,3.86
2022-12-31T03:43:56.071Z,3.80
2022-12-31T03:46:23.381Z,3.92
2022-12-31T03:48:50.879Z,3.85
2022-12-31T03:51:17.977Z,3.94
2022-12-31T03:53:44.965Z,3.88
2022-12-31T03:56:12.285Z,3.92
2022-12-31T03:58:39.312Z,3.97
2022-12-31T04:01:06.506Z,3.94
2022-12-31T04:03:33.863Z,3.81
2022-12-31T04:06:00.926Z,3.73
2022-12-31T04:08:27.969Z,3.67
2022-12-31T04:10:55.281Z,3.77
2022-12-31T04:13:22.320Z,3.83
2022-12-31T04:15:51.044Z,3.83
2022-12-31T04:18:18.444Z,3.70
2022-12-31T04:20:45.456Z,3.75
2022-12-31T04:23:12.468Z,3.77
2022-12-31T04:25:39.796Z,3.81
2022-12-31T04:28:06.840Z,3.75
2022-12-31T04:30:33.894Z,3.82
2022-12-31T04:33:01.212Z,3.84
2022-12-31T04:35:28.871Z,3.93
2022-12-31T04:37:55.849Z,3.93
2022-12-31T04:40:23.160Z,3.98
2022-12-31T04:42:50.154Z,4.08
2022-12-31T04:45:17.296Z,4.09
2022-12-31T04:47:44.594Z,4.09
2022-12-31T04:50:11.628Z,4.04
2022-12-31T04:52:42.694Z,4.08
2022-12-31T04:55:11.359Z,3.99
2022-12-31T04:57:38.777Z,3.97
2022-12-31T05:00:06.403Z,4.03
2022-12-31T05:02:33.882Z,4.03
2022-12-31T05:05:01.014Z,4.05
2022-12-31T05:07:28.020Z,4.02
2022-12-31T05:09:55.310Z,4.09
2022-12-31T05:12:22.361Z,4.03
2022-12-31T05:14:49.393Z,3.99
2022-12-31T05:17:16.835Z,4.05
2022-12-31T05:19:43.852Z,4.08
2022-12-31T05:22:29.213Z,4.05
2022-12-31T05:24:58.286Z,4.02
2022-12-31T05:27:26.343Z,3.93
2022-12-31T05:29:53.364Z,3.92
2022-12-31T05:32:20.665Z,3.90
2022-12-31T05:34:47.710Z,4.00
2022-12-31T05:37:14.743Z,4.04
2022-12-31T05:39:42.050Z,4.00
2022-12-31T05:42:09.066Z,3.95
2022-12-31T05:44:36.055Z,3.95
2022-12-31T05:47:03.792Z,4.03
2022-12-31T05:49:30.864Z,3.97
2022-12-31T05:51:57.909Z,3.98
2022-12-31T05:54:25.251Z,3.98
2022-12-31T05:56:52.549Z,3.93
2022-12-31T05:59:19.677Z,3.92
2022-12-31T06:01:47.471Z,3.97
2022-12-31T06:04:14.765Z,3.98
2022-12-31T06:06:41.823Z,4.03
2022-12-31T06:09:09.160Z,4.04
2022-12-31T06:11:36.768Z,3.97
2022-12-31T06:14:03.780Z,3.96
2022-12-31T06:16:30.784Z,4.09
2022-12-31T06:19:01.598Z,4.21
2022-12-31T06:21:29.986Z,4.13
2022-12-31T06:23:58.859Z,4.06
2022-12-31T06:26:26.896Z,4.03
2022-12-31T06:28:53.933Z,3.98
2022-12-31T06:31:21.410Z,3.97
2022-12-31T06:33:48.484Z,4.04
2022-12-31T06:36:16.600Z,3.99
2022-12-31T06:38:44.288Z,3.98
2022-12-31T06:41:13.892Z,3.96
2022-12-31T06:43:41.704Z,4.02
2022-12-31T06:46:11.823Z,4.02
2022-12-31T06:48:41.874Z,4.04
2022-12-31T06:51:16.997Z,4.13
2022-12-31T06:53:49.295Z,4.12
2022-12-31T06:56:34.059Z,4.13
2022-12-31T06:59:03.068Z,4.15
2022-12-31T07:01:51.295Z,4.05
2022-12-31T07:04:24.499Z,4.08
2022-12-31T07:06:54.809Z,4.04
2022-12-31T07:09:49.017Z,4.00
2022-12-31T07:12:36.377Z,4.06
2022-12-31T07:15:12.320Z,4.21
2022-12-31T07:17:42.803Z,4.29
2022-12-31T07:20:14.928Z,4.31
2022-12-31T07:22:44.173Z,4.35
2022-12-31T07:25:18.888Z,4.43
2022-12-31T07:28:17.631Z,4.49
2022-12-31T07:31:02.902Z,4.45
2022-12-31T07:33:36.448Z,4.43
2022-12-31T07:36:14.034Z,4.54
2022-12-31T07:39:06.621Z,4.52
2022-12-31T07:41:39.662Z,4.63
2022-12-31T07:44:20.614Z,4.59
2022-12-31T07:47:02.022Z,4.73
2022-12-31T07:49:30.659Z,4.88
2022-12-31T07:51:58.117Z,4.89
2022-12-31T07:54:25.281Z,4.88
2022-12-31T07:56:52.716Z,4.87
2022-12-31T07:59:34.704Z,5.04
2022-12-31T08:02:20.645Z,5.10
2022-12-31T08:05:13.059Z,5.09
2022-12-31T08:07:51.999Z,5.14
2022-12-31T08:10:23.897Z,5.16
2022-12-31T08:12:55.759Z,5.19
2022-12-31T08:15:30.295Z,5.24
2022-12-31T08:17:58.208Z,5.33
2022-12-31T08:20:26.948Z,5.14
2022-12-31T08:23:40.520Z,5.26
2022-12-31T08:26:40.163Z,5.21
2022-12-31T08:29:42.568Z,5.47
2022-12-31T08:32:17.324Z,5.46
2022-12-31T08:35:25.249Z,5.55
2022-12-31T08:38:46.982Z,5.55
2022-12-31T08:41:21.017Z,5.57
2022-12-31T08:43:58.210Z,5.68
2022-12-31T08:46:35.954Z,5.64
2022-12-31T08:49:03.793Z,5.69
2022-12-31T08:51:31.370Z,5.95
2022-12-31T08:53:58.675Z,6.00
2022-12-31T08:56:40.189Z,6.12
2022-12-31T08:59:47.731Z,6.43
2022-12-31T09:02:33.859Z,6.61
2022-12-31T09:05:27.208Z,6.64
2022-12-31T09:08:22.943Z,6.71
2022-12-31T09:10:56.027Z,6.64
2022-12-31T09:13:38.722Z,6.54
2022-12-31T09:16:16.157Z,6.45
2022-12-31T09:18:44.081Z,6.45
2022-12-31T09:21:13.891Z,6.45
2022-12-31T09:23:41.579Z,6.36
2022-12-31T09:26:33.772Z,6.27
2022-12-31T09:29:19.062Z,6.21
2022-12-31T09:31:53.465Z,6.24
2022-12-31T09:34:35.475Z,6.31
2022-12-31T09:37:11.101Z,6.31
2022-12-31T09:39:44.863Z,6.46
2022-12-31T09:42:49.213Z,6.58
2022-12-31T09:45:34.377Z,6.65
2022-12-31T09:48:04.698Z,6.75
2022-12-31T09:50:59.643Z,6.95
2022-12-31T09:53:36.064Z,6.97
2022-12-31T09:56:11.725Z,7.17
2022-12-31T09:59:05.254Z,7.26
2022-12-31T10:02:13.618Z,7.38
2022-12-31T10:05:14.765Z,7.40
2022-12-31T10:07:50.368Z,7.35
2022-12-31T10:10:34.490Z,7.28
2022-12-31T10:13:20.200Z,7.40
2022-12-31T10:15:53.794Z,7.39
2022-12-31T10:18:57.554Z,7.39
2022-12-31T10:21:43.684Z,7.34
2022-12-31T10:24:26.014Z,7.40
2022-12-31T10:27:14.113Z,7.26
2022-12-31T10:29:55.033Z,7.20
2022-12-31T10:32:40.828Z,7.20
2022-12-31T10:35:43.914Z,7.15
2022-12-31T10:38:14.369Z,7.12
2022-12-31T10:41:07.813Z,7.36
2022-12-31T10:43:50.192Z,7.46
2022-12-31T10:46:39.027Z,7.42
2022-12-31T10:49:25.292Z,7.34
2022-12-31T10:52:23.986Z,7.19
2022-12-31T10:55:13.075Z,7.24
2022-12-31T10:58:10.345Z,7.11
2022-12-31T11:00:49.687Z,7.14
2022-12-31T11:03:47.129Z,7.14
2022-12-31T11:06:32.092Z,7.15
2022-12-31T11:09:16.225Z,7.21
2022-12-31T11:12:00.080Z,7.20
2022-12-31T11:15:04.869Z,7.21
2022-12-31T11:17:54.637Z,7.26
2022-12-31T11:21:06.913Z,7.21
2022-12-31T11:23:51.273Z,7.07
2022-12-31T11:26:37.147Z,7.23
2022-12-31T11:30:02.984Z,7.29
2022-12-31T11:33:00.997Z,7.39
2022-12-31T11:35:41.818Z,7.43
2022-12-31T11:38:21.220Z,7.45
2022-12-31T11:41:07.774Z,7.54
2022-12-31T11:43:52.406Z,7.40
2022-12-31T11:47:01.957Z,7.38
2022-12-31T11:49:39.896Z,7.53
2022-12-31T11:52:26.264Z,7.63
2022-12-31T11:55:08.570Z,7.74
2022-12-31T11:57:38.774Z,7.89
2022-12-31T12:00:09.530Z,7.97
2022-12-31T12:02:45.709Z,8.01
2022-12-31T12:05:16.824Z,7.97
2022-12-31T12:07:44.438Z,8.00
2022-12-31T12:10:37.980Z,7.93
2022-12-31T12:13:14.309Z,8.04
2022-12-31T12:15:45.803Z,8.14
2022-12-31T12:18:50.113Z,8.14
2022-12-31T12:21:25.179Z,8.28
2022-12-31T12:24:02.989Z,8.34
2022-12-31T12:26:35.364Z,8.50
2022-12-31T12:29:18.975Z,8.61
2022-12-31T12:32:02.912Z,8.57
2022-12-31T12:34:45.874Z,8.67
2022-12-31T12:37:22.056Z,8.88
2022-12-31T12:40:00.895Z,8.97
2022-12-31T12:42:29.137Z,8.98
2022-12-31T12:45:14.083Z,8.95
2022-12-31T12:47:45.998Z,8.92
2022-12-31T12:50:18.030Z,8.86
2022-12-31T12:52:59.484Z,8.85
2022-12-31T12:55:42.144Z,8.79
2022-12-31T12:58:32.378Z,8.78
2022-12-31T13:01:02.617Z,8.65
2022-12-31T13:04:32.404Z,8.79
2022-12-31T13:07:06.197Z,8.80
2022-12-31T13:09:36.138Z,8.97
2022-12-31T13:12:08.051Z,8.87
2022-12-31T13:14:50.085Z,8.87
2022-12-31T13:17:29.498Z,8.89
2022-12-31T13:20:13.173Z,8.84
2022-12-31T13:22:58.215Z,8.90
2022-12-31T13:25:46.602Z,8.84
2022-12-31T13:28:16.427Z,8.87
2022-12-31T13:30:48.914Z,8.84
2022-12-31T13:33:24.293Z,8.92
2022-12-31T13:35:57.878Z,8.99
2022-12-31T13:38:36.931Z,8.92
2022-12-31T13:41:11.880Z,9.00
2022-12-31T13:44:10.285Z,9.05
2022-12-31T13:46:52.856Z,9.00
2022-12-31T13:49:26.729Z,8.92
2022-12-31T13:52:07.160Z,8.93
2022-12-31T13:54:54.552Z,8.86
2022-12-31T13:57:34.622Z,8.85
2022-12-31T14:00:06.651Z,8.87
2022-12-31T14:02:46.108Z,8.90
2022-12-31T14:05:21.517Z,8.93
2022-12-31T14:08:00.429Z,8.94
2022-12-31T14:10:48.895Z,8.99
2022-12-31T14:13:34.574Z,9.00
2022-12-31T14:16:11.670Z,8.91
2022-12-31T14:18:57.366Z,8.85
2022-12-31T14:21:37.507Z,8.84
2022-12-31T14:24:15.939Z,8.76
2022-12-31T14:26:48.662Z,8.69
2022-12-31T14:29:33.952Z,8.76
2022-12-31T14:32:07.122Z,8.60
2022-12-31T14:35:15.555Z,8.49
2022-12-31T14:37:58.682Z,8.53
2022-12-31T14:40:47.382Z,8.49
2022-12-31T14:43:23.821Z,8.47
2022-12-31T14:46:02.113Z,8.47
2022-12-31T14:48:46.160Z,8.49
2022-12-31T14:51:14.182Z,8.39
2022-12-31T14:53:52.628Z,8.33
2022-12-31T14:56:43.093Z,8.20
2022-12-31T14:59:34.415Z,8.18
2022-12-31T15:02:02.989Z,8.17
2022-12-31T15:04:45.292Z,8.02
2022-12-31T15:07:42.550Z,7.89
2022-12-31T15:10:51.647Z,7.92
2022-12-31T15:13:34.675Z,7.83
2022-12-31T15:16:30.132Z,7.69
2022-12-31T15:19:03.086Z,7.62
2022-12-31T15:21:50.640Z,7.65
2022-12-31T15:24:17.660Z,7.60
2022-12-31T15:26:52.006Z,7.49
2022-12-31T15:29:30.357Z,7.52
2022-12-31T15:32:00.511Z,7.42
2022-12-31T15:34:29.647Z,7.36
2022-12-31T15:37:00.180Z,7.38
2022-12-31T15:39:39.177Z,7.32
2022-12-31T15:42:49.226Z,7.36
2022-12-31T15:45:27.529Z,7.21
2022-12-31T15:48:02.021Z,7.03
2022-12-31T15:50:30.199Z,7.04
2022-12-31T15:53:00.876Z,7.15
2022-12-31T15:55:46.415Z,7.27
2022-12-31T15:58:23.806Z,7.18
2022-12-31T16:01:17.609Z,7.15
2022-12-31T16:03:51.571Z,7.16
2022-12-31T16:06:18.793Z,7.12
2022-12-31T16:08:48.605Z,7.12
2022-12-31T16:11:17.116Z,7.26
2022-12-31T16:13:50.329Z,7.14
2022-12-31T16:16:31.860Z,7.15
2022-12-31T16:19:00.635Z,7.15
2022-12-31T16:21:34.556Z,7.07
2022-12-31T16:24:27.692Z,7.05
2022-12-31T16:26:59.655Z,7.05
2022-12-31T16:29:27.029Z,7.02
2022-12-31T16:31:54.759Z,6.90
2022-12-31T16:34:24.939Z,6.87
2022-12-31T16:37:19.667Z,6.87
2022-12-31T16:39:57.855Z,6.69
2022-12-31T16:42:27.889Z,6.64
2022-12-31T16:44:57.189Z,6.51
2022-12-31T16:47:35.020Z,6.50
2022-12-31T16:50:12.916Z,6.44
2022-12-31T16:52:43.226Z,6.43
2022-12-31T16:55:18.416Z,6.44
2022-12-31T16:57:55.915Z,6.40
2022-12-31T17:00:25.142Z,6.41
2022-12-31T17:03:27.407Z,6.37
2022-12-31T17:06:13.673Z,6.34
2022-12-31T17:08:56.036Z,6.33
2022-12-31T17:11:31.476Z,6.30
2022-12-31T17:14:07.812Z,6.28
2022-12-31T17:16:38.501Z,6.33
2022-12-31T17:19:06.118Z,6.39
2022-12-31T17:21:33.639Z,6.49
2022-12-31T17:24:04.546Z,6.61
2022-12-31T17:26:37.816Z,6.67
2022-12-31T17:29:06.098Z,6.74
2022-12-31T17:31:33.555Z,6.85
2022-12-31T17:34:12.773Z,6.92
2022-12-31T17:36:51.324Z,6.98
2022-12-31T17:39:20.805Z,7.03
2022-12-31T17:41:50.665Z,7.13
2022-12-31T17:44:21.296Z,7.16
2022-12-31T17:46:50.250Z,7.17
2022-12-31T17:49:21.829Z,7.18
2022-12-31T17:51:49.217Z,7.16
2022-12-31T17:54:17.211Z,7.15
2022-12-31T17:56:45.479Z,7.15
2022-12-31T17:59:18.236Z,7.15
2022-12-31T18:01:45.478Z,7.15
2022-12-31T18:04:14.207Z,7.13
2022-12-31T18:06:42.118Z,7.12
2022-12-31T18:09:09.714Z,7.10
2022-12-31T18:11:38.521Z,7.01
2022-12-31T18:14:07.076Z,6.97
2022-12-31T18:16:34.407Z,6.91
2022-12-31T18:19:02.147Z,6.82
2022-12-31T18:21:34.529Z,6.75
2022-12-31T18:26:32.594Z,6.58
2022-12-31T18:29:02.599Z,6.51
2022-12-31T18:31:31.059Z,6.42
2022-12-31T18:33:59.456Z,6.33
2022-12-31T18:36:28.415Z,6.24
2022-12-31T18:38:55.891Z,6.18
2022-12-31T18:41:27.624Z,6.09
2022-12-31T18:43:55.290Z,6.06
2022-12-31T18:46:24.616Z,6.02
2022-12-31T18:48:51.718Z,5.99
2022-12-31T18:51:26.475Z,5.90
2022-12-31T18:54:00.575Z,5.95
2022-12-31T18:56:28.289Z,5.84
2022-12-31T18:58:55.325Z,5.83
2022-12-31T19:01:22.975Z,5.84
2022-12-31T19:03:50.036Z,5.84
2022-12-31T19:06:18.353Z,5.82
2022-12-31T19:08:45.693Z,5.82
2022-12-31T19:11:14.142Z,5.83
2022-12-31T19:13:41.226Z,5.80
2022-12-31T19:16:09.703Z,5.77
2022-12-31T19:18:37.026Z,5.75
2022-12-31T19:21:04.953Z,5.75
2022-12-31T19:23:32.272Z,5.78
2022-12-31T19:25:59.349Z,5.70
2022-12-31T19:28:27.567Z,5.65
2022-12-31T19:30:55.007Z,5.65
2022-12-31T19:33:22.132Z,5.61
2022-12-31T19:35:49.358Z,5.60
2022-12-31T19:38:23.774Z,5.62
2022-12-31T19:40:51.990Z,5.63
2022-12-31T19:43:21.892Z,5.64
2022-12-31T19:45:50.175Z,5.64
2022-12-31T19:48:28.723Z,5.61
2022-12-31T19:50:59.969Z,5.60
2022-12-31T19:53:28.067Z,5.59
2022-12-31T19:55:55.119Z,5.69
2022-12-31T19:58:25.633Z,5.66
2022-12-31T20:01:01.059Z,5.71
2022-12-31T20:03:30.009Z,5.70
2022-12-31T20:06:08.786Z,5.74
2022-12-31T20:08:37.961Z,5.75
2022-12-31T20:11:17.422Z,5.79
2022-12-31T20:13:45.850Z,5.81
2022-12-31T20:16:15.582Z,5.85
2022-12-31T20:18:44.039Z,5.86
2022-12-31T20:21:20.296Z,5.87
2022-12-31T20:23:49.314Z,5.90
2022-12-31T20:26:18.147Z,5.91
2022-12-31T20:28:45.762Z,5.99
2022-12-31T20:31:19.030Z,5.95
2022-12-31T20:33:46.632Z,5.93
2022-12-31T20:36:15.778Z,5.88
2022-12-31T20:38:43.637Z,5.90
2022-12-31T20:41:20.363Z,5.88
2022-12-31T20:43:47.794Z,5.88
2022-12-31T20:46:23.668Z,5.84
2022-12-31T20:48:53.061Z,5.79
2022-12-31T20:51:21.516Z,5.76
2022-12-31T20:53:57.666Z,5.74
2022-12-31T20:56:26.578Z,5.60
2022-12-31T20:58:53.662Z,5.52
2022-12-31T21:01:21.415Z,5.50
2022-12-31T21:04:06.341Z,5.50
2022-12-31T21:06:35.457Z,5.50
2022-12-31T21:09:05.754Z,5.60
2022-12-31T21:11:51.570Z,5.59
2022-12-31T21:14:19.268Z,5.63
2022-12-31T21:16:46.359Z,5.59
2022-12-31T21:19:13.415Z,5.54
2022-12-31T21:21:40.693Z,5.55
2022-12-31T21:24:08.203Z,5.50
2022-12-31T21:26:35.433Z,5.50
2022-12-31T21:29:03.168Z,5.41
2022-12-31T21:31:30.234Z,5.43
2022-12-31T21:33:57.420Z,5.45
2022-12-31T21:36:27.518Z,5.43
2022-12-31T21:38:54.516Z,5.41
2022-12-31T21:41:40.159Z,5.41
2022-12-31T21:44:07.653Z,5.36
2022-12-31T21:46:35.015Z,5.35
2022-12-31T21:49:02.329Z,5.35
2022-12-31T21:51:30.240Z,5.32
2022-12-31T21:53:58.026Z,5.29
2022-12-31T21:56:27.969Z,5.22
2022-12-31T21:59:15.606Z,5.22
2022-12-31T22:02:02.130Z,5.21
2022-12-31T22:07:18.638Z,5.17
2022-12-31T22:09:46.163Z,5.15
2022-12-31T22:12:13.230Z,5.14
2022-12-31T22:15:15.449Z,5.13
2022-12-31T22:17:28.873Z,5.09
2022-12-31T22:22:46.260Z,4.99
2022-12-31T22:25:16.363Z,4.97
2022-12-31T22:27:53.043Z,4.97
2022-12-31T22:30:31.586Z,4.91
2022-12-31T22:32:59.005Z,4.91
2022-12-31T22:35:26.112Z,5.09
2022-12-31T22:37:59.137Z,5.04
2022-12-31T22:40:28.703Z,5.02
2022-12-31T22:42:56.320Z,5.03
2022-12-31T22:45:23.563Z,5.21
2022-12-31T22:47:50.988Z,5.15
2022-12-31T22:50:18.475Z,5.09
2022-12-31T22:52:46.715Z,5.02
2022-12-31T22:55:15.025Z,5.03
2022-12-31T22:57:43.533Z,5.07
2022-12-31T23:00:13.209Z,5.04
2022-12-31T23:02:42.276Z,5.01
2022-12-31T23:05:15.361Z,5.00
2022-12-31T23:07:43.648Z,5.06
2022-12-31T23:10:29.899Z,5.06
2022-12-31T23:12:58.628Z,4.93
2022-12-31T23:15:44.721Z,4.85
2022-12-31T23:18:30.545Z,4.75
2022-12-31T23:21:16.451Z,4.67
2022-12-31T23:23:43.626Z,4.69
2022-12-31T23:26:11.142Z,4.65
2022-12-31T23:28:38.285Z,4.63
2022-12-31T23:31:06.654Z,4.60
2022-12-31T23:33:34.091Z,4.50
2022-12-31T23:36:06.297Z,4.49
2022-12-31T23:38:33.859Z,4.45
2022-12-31T23:41:01.073Z,4.41
2022-12-31T23:43:29.607Z,4.35
2022-12-31T23:45:57.082Z,4.34
2022-12-31T23:48:25.056Z,4.32
2022-12-31T23:50:54.285Z,4.22
2022-12-31T23:53:24.946Z,4.29
2022-12-31T23:55:53.324Z,4.17
2022-12-31T23:58:21.399Z,4.17
